CheckWX is a tool to help pilots better visualize weather data.  It is not intended as a substitute for an official pre-flight weather briefing.

19:02:45 UTC

KMBL TAF
Manistee Co-Blacker Airport
Manistee, Michigan, USA
KMBL 191738Z 1918/2018 33007KT P6SM SCT007 BKN070 FM192000 35007KT P6SM BKN070 FM200300 VRB03KT P6SM BKN025 FM201200 VRB04KT P6SM OVC005 FM201600 05006KT P6SM BKN180

Jun-19@
18:00 UTC

Jun-19 @ 18:00 UTC

Jun-19@
20:00 UTC

Jun-19 @ 20:00 UTC

KMBL 191738Z 1918/2018 33007KT P6SM SCT007 BKN070
Wind
  • 330° at 7 KTS
Cloud Levels
  • Scattered at 700' AGL
  • Broken at 7,000' AGL

Jun-19@
20:00 UTC

Jun-19 @ 20:00 UTC

Jun-20@
03:00 UTC

Jun-20 @ 03:00 UTC

FM192000 35007KT P6SM BKN070

From

From Standard forecast or significant change

Wind
  • 350° at 7 KTS
Cloud Levels
  • Broken at 7,000' AGL

Jun-20@
03:00 UTC

Jun-20 @ 03:00 UTC

Jun-20@
12:00 UTC

Jun-20 @ 12:00 UTC

FM200300 VRB03KT P6SM BKN025

From

From Standard forecast or significant change

Wind
  • Variable at 3 KTS
Cloud Levels
  • Broken at 2,500' AGL

Jun-20@
12:00 UTC

Jun-20 @ 12:00 UTC

Jun-20@
16:00 UTC

Jun-20 @ 16:00 UTC

FM201200 VRB04KT P6SM OVC005

From

From Standard forecast or significant change

Wind
  • Variable at 4 KTS
Cloud Levels
  • Overcast at 500' AGL

Jun-20@
16:00 UTC

Jun-20 @ 16:00 UTC

Jun-20@
18:00 UTC

Jun-20 @ 18:00 UTC

FM201600 05006KT P6SM BKN180

From

From Standard forecast or significant change

Wind
  • 050° at 6 KTS
Cloud Levels
  • Broken at 18,000' AGL